createdAt,value
2018-06-08T00:01:34.095Z,44.77
2018-06-08T00:04:37.539Z,50.97
2018-06-08T00:07:41.107Z,57.30
2018-06-08T00:10:44.635Z,89.10
2018-06-08T00:13:48.233Z,119.17
2018-06-08T00:16:51.638Z,105.50
2018-06-08T00:19:55.151Z,50.63
2018-06-08T00:22:58.502Z,60.53
2018-06-08T00:26:04.135Z,55.10
2018-06-08T00:29:07.855Z,27.30
2018-06-08T00:32:11.257Z,27.03
2018-06-08T00:35:14.741Z,28.30
2018-06-08T00:38:18.447Z,28.97
2018-06-08T00:41:22.166Z,30.43
2018-06-08T00:44:25.659Z,28.47
2018-06-08T00:47:29.219Z,28.40
2018-06-08T00:50:32.618Z,29.73
2018-06-08T00:53:38.251Z,22.83
2018-06-08T00:56:53.025Z,23.80
2018-06-08T00:59:56.698Z,23.20
2018-06-08T01:03:00.258Z,27.30
2018-06-08T01:06:03.696Z,27.73
2018-06-08T01:09:08.744Z,25.37
2018-06-08T01:12:12.184Z,27.43
2018-06-08T01:15:17.611Z,22.37
2018-06-08T01:18:23.291Z,23.83
2018-06-08T01:21:27.437Z,24.57
2018-06-08T01:24:32.370Z,22.43
2018-06-08T01:27:35.715Z,40.53
2018-06-08T01:30:39.210Z,43.97
2018-06-08T01:33:42.819Z,24.03
2018-06-08T01:36:46.991Z,26.70
2018-06-08T01:39:50.405Z,27.83
2018-06-08T01:42:54.182Z,32.07
2018-06-08T01:45:57.930Z,29.17
2018-06-08T01:49:04.671Z,28.63
2018-06-08T01:52:08.168Z,33.37
2018-06-08T01:55:11.674Z,32.07
2018-06-08T01:58:15.215Z,36.63
2018-06-08T02:01:19.720Z,35.53
2018-06-08T02:04:23.290Z,34.13
2018-06-08T02:07:26.773Z,33.03
2018-06-08T02:10:30.200Z,35.93
2018-06-08T02:13:34.717Z,44.83
2018-06-08T02:16:41.421Z,38.43
2018-06-08T02:19:45.085Z,39.77
2018-06-08T02:22:49.599Z,35.67
2018-06-08T02:25:53.178Z,31.33
2018-06-08T02:28:56.426Z,33.93
2018-06-08T02:31:59.981Z,28.23
2018-06-08T02:35:03.403Z,32.60
2018-06-08T02:38:07.290Z,27.40
2018-06-08T02:41:10.637Z,31.50
2018-06-08T02:44:14.159Z,24.97
2018-06-08T02:47:18.605Z,31.77
2018-06-08T02:50:22.177Z,24.80
2018-06-08T02:53:25.677Z,32.93
2018-06-08T02:56:29.180Z,29.73
2018-06-08T02:59:32.761Z,25.70
2018-06-08T03:02:36.201Z,26.77
2018-06-08T03:05:41.097Z,29.10
2018-06-08T03:08:45.032Z,32.73
2018-06-08T03:11:50.123Z,121.23
2018-06-08T03:14:55.949Z,166.30
2018-06-08T03:18:00.809Z,195.50
2018-06-08T03:21:05.597Z,170.30
2018-06-08T03:24:13.055Z,125.30
2018-06-08T03:27:17.763Z,114.23
2018-06-08T03:30:25.805Z,125.13
2018-06-08T03:33:35.984Z,115.30
2018-06-08T03:36:41.312Z,100.63
2018-06-08T03:39:46.089Z,81.33
2018-06-08T03:42:50.510Z,128.57
2018-06-08T03:45:55.180Z,89.87
2018-06-08T03:49:00.660Z,200.30
2018-06-08T03:52:07.312Z,110.17
2018-06-08T03:55:10.878Z,71.40
2018-06-08T03:58:14.425Z,71.17
2018-06-08T04:01:18.204Z,76.77
2018-06-08T04:04:22.576Z,85.17
2018-06-08T04:07:27.851Z,69.70
2018-06-08T04:10:31.380Z,40.30
2018-06-08T04:13:35.352Z,32.67
2018-06-08T04:16:38.848Z,17.90
2018-06-08T04:19:42.323Z,19.33
2018-06-08T04:22:46.068Z,16.13
2018-06-08T04:25:49.691Z,15.07
2018-06-08T04:28:53.532Z,17.37
2018-06-08T04:31:58.004Z,15.53
2018-06-08T04:35:01.551Z,15.10
2018-06-08T04:38:11.839Z,16.07
2018-06-08T04:41:17.333Z,15.77
2018-06-08T04:44:20.989Z,17.47
2018-06-08T04:47:30.063Z,17.07
2018-06-08T04:50:44.876Z,19.90
2018-06-08T04:53:47.917Z,22.80
2018-06-08T04:56:52.189Z,25.90
2018-06-08T04:59:57.570Z,24.23
2018-06-08T05:03:01.161Z,24.23
2018-06-08T05:06:04.601Z,27.40
2018-06-08T05:09:07.887Z,28.73
2018-06-08T05:12:11.207Z,27.60
2018-06-08T05:15:14.530Z,22.03
2018-06-08T05:18:18.084Z,24.87
2018-06-08T05:21:21.427Z,22.13
2018-06-08T05:24:24.829Z,26.77
2018-06-08T05:27:27.918Z,23.30
2018-06-08T05:30:30.925Z,27.97
2018-06-08T05:33:37.491Z,24.07
2018-06-08T05:36:40.881Z,23.53
2018-06-08T05:39:44.702Z,24.47
2018-06-08T05:42:48.135Z,25.80
2018-06-08T05:45:51.589Z,27.73
2018-06-08T05:48:55.272Z,24.33
2018-06-08T05:52:01.172Z,25.63
2018-06-08T05:55:04.740Z,26.77
2018-06-08T05:58:08.745Z,25.57
2018-06-08T06:01:12.839Z,23.73
2018-06-08T06:04:17.272Z,25.70
2018-06-08T06:07:21.936Z,29.03
2018-06-08T06:10:26.473Z,30.73
2018-06-08T06:13:30.436Z,34.57
2018-06-08T06:16:34.212Z,33.70
2018-06-08T06:19:39.550Z,28.23
2018-06-08T06:22:42.802Z,32.13
2018-06-08T06:25:46.103Z,36.63
2018-06-08T06:28:49.360Z,37.73
2018-06-08T06:31:52.649Z,38.87
2018-06-08T06:34:55.909Z,44.20
2018-06-08T06:37:59.097Z,41.07
2018-06-08T06:41:02.289Z,39.63
2018-06-08T06:44:05.679Z,41.33
2018-06-08T06:47:08.941Z,47.73
2018-06-08T06:50:12.039Z,40.13
2018-06-08T06:53:16.757Z,38.10
2018-06-08T06:56:19.930Z,38.90
2018-06-08T06:59:23.055Z,43.70
2018-06-08T07:02:26.066Z,44.93
2018-06-08T07:05:29.159Z,44.47
2018-06-08T07:08:32.221Z,45.00
2018-06-08T07:11:35.386Z,43.30
2018-06-08T07:14:38.426Z,46.67
2018-06-08T07:17:41.691Z,46.30
2018-06-08T07:20:44.911Z,38.67
2018-06-08T07:23:48.110Z,33.57
2018-06-08T07:26:51.384Z,32.93
2018-06-08T07:29:54.747Z,35.60
2018-06-08T07:32:58.129Z,32.13
2018-06-08T07:36:01.375Z,53.17
2018-06-08T07:39:06.330Z,31.43
2018-06-08T07:42:09.680Z,30.67
2018-06-08T07:45:13.078Z,30.60
2018-06-08T07:48:16.375Z,29.63
2018-06-08T07:51:19.627Z,22.23
2018-06-08T07:54:22.854Z,22.43
2018-06-08T07:57:26.134Z,23.03
2018-06-08T08:00:29.458Z,21.60
2018-06-08T08:03:32.832Z,21.97
2018-06-08T08:06:36.236Z,21.07
2018-06-08T08:09:39.602Z,23.43
2018-06-08T08:12:43.008Z,20.93
2018-06-08T08:15:46.315Z,21.57
2018-06-08T08:18:49.592Z,21.30
2018-06-08T08:21:53.189Z,23.73
2018-06-08T08:24:56.578Z,21.63
2018-06-08T08:28:00.102Z,20.20
2018-06-08T08:31:04.700Z,20.80
2018-06-08T08:34:08.058Z,20.20
2018-06-08T08:37:11.353Z,19.70
2018-06-08T08:40:14.831Z,23.20
2018-06-08T08:43:18.303Z,22.27
2018-06-08T08:46:24.195Z,22.33
2018-06-08T08:49:34.588Z,23.03
2018-06-08T08:52:39.170Z,20.70
2018-06-08T08:55:42.789Z,18.17
2018-06-08T08:58:46.427Z,20.93
2018-06-08T09:01:49.856Z,22.20
2018-06-08T09:04:53.250Z,18.67
2018-06-08T09:07:58.013Z,19.43
2018-06-08T09:11:01.084Z,17.63
2018-06-08T09:14:04.247Z,19.07
2018-06-08T09:17:07.488Z,17.57
2018-06-08T09:20:11.027Z,16.47
2018-06-08T09:23:14.615Z,16.63
2018-06-08T09:26:18.063Z,17.83
2018-06-08T09:29:21.821Z,17.37
2018-06-08T09:32:26.430Z,15.97
2018-06-08T09:35:30.097Z,18.90
2018-06-08T09:38:34.691Z,18.00
2018-06-08T09:41:38.346Z,16.93
2018-06-08T09:44:41.780Z,19.53
2018-06-08T09:47:44.928Z,16.23
2018-06-08T09:50:48.661Z,19.23
2018-06-08T09:53:52.247Z,17.03
2018-06-08T09:56:56.087Z,15.70
2018-06-08T10:00:00.361Z,18.43
2018-06-08T10:03:05.556Z,17.13
2018-06-08T10:06:09.232Z,16.97
2018-06-08T10:09:13.646Z,14.53
2018-06-08T10:12:17.047Z,14.60
2018-06-08T10:15:21.387Z,13.80
2018-06-08T10:18:26.028Z,16.73
2018-06-08T10:21:31.209Z,18.30
2018-06-08T10:24:35.290Z,18.80
2018-06-08T10:27:39.336Z,17.50
2018-06-08T10:30:42.801Z,17.20
2018-06-08T10:33:45.797Z,17.70
2018-06-08T10:36:51.475Z,17.63
2018-06-08T10:39:55.098Z,18.33
2018-06-08T10:43:01.314Z,18.13
2018-06-08T10:46:08.529Z,17.83
2018-06-08T10:49:14.092Z,17.27
2018-06-08T10:52:18.490Z,16.97
2018-06-08T10:55:25.357Z,16.13
2018-06-08T10:58:30.892Z,15.83
2018-06-08T11:01:39.913Z,15.70
2018-06-08T11:04:43.887Z,15.37
2018-06-08T11:07:48.436Z,16.57
2018-06-08T11:10:54.073Z,19.33
2018-06-08T11:13:58.544Z,17.57
2018-06-08T11:17:03.535Z,16.90
2018-06-08T11:20:09.326Z,17.13
2018-06-08T11:23:13.047Z,16.40
2018-06-08T11:26:20.245Z,18.70
2018-06-08T11:29:24.039Z,19.13
2018-06-08T11:32:28.564Z,14.47
2018-06-08T11:35:32.119Z,16.33
2018-06-08T11:38:35.616Z,26.73
2018-06-08T11:41:40.394Z,14.97
2018-06-08T11:44:43.874Z,16.90
2018-06-08T11:47:50.809Z,16.43
2018-06-08T11:50:54.216Z,15.80
2018-06-08T11:53:57.482Z,17.83
2018-06-08T11:57:01.482Z,15.33
2018-06-08T12:00:05.985Z,15.50
2018-06-08T12:03:09.688Z,16.90
2018-06-08T12:06:14.319Z,14.97
2018-06-08T12:09:18.898Z,17.83
2018-06-08T12:12:23.279Z,15.50
2018-06-08T12:15:26.731Z,16.20
2018-06-08T12:18:31.305Z,17.33
2018-06-08T12:21:34.856Z,13.97
2018-06-08T12:24:38.373Z,14.73
2018-06-08T12:27:42.811Z,13.70
2018-06-08T12:30:46.413Z,12.03
2018-06-08T12:33:50.046Z,13.20
2018-06-08T12:36:53.653Z,11.83
2018-06-08T12:40:01.092Z,12.13
2018-06-08T12:43:05.756Z,12.57
2018-06-08T12:46:10.342Z,13.30
2018-06-08T12:49:14.809Z,13.43
2018-06-08T12:52:20.066Z,12.07
2018-06-08T12:55:23.740Z,17.87
2018-06-08T12:58:27.086Z,18.10
2018-06-08T13:01:30.625Z,11.80
2018-06-08T13:04:36.050Z,13.63
2018-06-08T13:07:39.862Z,11.97
2018-06-08T13:10:44.237Z,10.57
2018-06-08T13:13:48.052Z,10.93
2018-06-08T13:16:52.458Z,11.40
2018-06-08T13:19:57.318Z,10.93
2018-06-08T13:23:01.103Z,10.57
2018-06-08T13:26:04.649Z,10.90
2018-06-08T13:29:10.016Z,11.03
2018-06-08T13:32:15.792Z,15.03
2018-06-08T13:35:19.361Z,11.23
2018-06-08T13:38:25.723Z,11.30
2018-06-08T13:41:29.728Z,11.13
2018-06-08T13:44:33.602Z,9.67
2018-06-08T13:47:41.806Z,11.37
2018-06-08T13:50:46.285Z,13.60
2018-06-08T13:53:49.836Z,10.70
2018-06-08T13:56:53.572Z,12.00
2018-06-08T13:59:57.329Z,12.00
2018-06-08T14:03:01.838Z,14.37
2018-06-08T14:06:05.891Z,12.27
2018-06-08T14:09:10.692Z,13.43
2018-06-08T14:12:14.614Z,12.50
2018-06-08T14:15:18.232Z,13.37
2018-06-08T14:18:21.725Z,14.90
2018-06-08T14:21:26.601Z,12.17
2018-06-08T14:24:30.346Z,12.27
2018-06-08T14:27:33.959Z,12.20
2018-06-08T14:30:42.797Z,11.37
2018-06-08T14:33:46.318Z,10.47
2018-06-08T14:36:51.973Z,11.10
2018-06-08T14:39:55.565Z,11.20
2018-06-08T14:42:59.189Z,10.87
2018-06-08T14:46:03.820Z,10.93
2018-06-08T14:49:08.746Z,10.23
2018-06-08T14:52:11.934Z,9.67
2018-06-08T14:55:20.975Z,9.97
2018-06-08T14:58:25.546Z,10.80
2018-06-08T15:01:30.391Z,10.17
2018-06-08T15:04:34.830Z,9.80
2018-06-08T15:07:38.567Z,9.90
2018-06-08T15:10:42.276Z,11.23
2018-06-08T15:13:46.237Z,13.10
2018-06-08T15:16:50.921Z,13.27
2018-06-08T15:19:57.641Z,13.77
2018-06-08T15:23:02.369Z,14.47
2018-06-08T15:26:05.299Z,14.13
2018-06-08T15:29:08.789Z,14.00
2018-06-08T15:32:12.335Z,13.60
2018-06-08T15:35:15.784Z,13.73
2018-06-08T15:38:21.237Z,14.33
2018-06-08T15:41:24.639Z,16.40
2018-06-08T15:44:28.134Z,13.57
2018-06-08T15:47:32.513Z,14.33
2018-06-08T15:50:36.162Z,14.63
2018-06-08T15:53:39.804Z,14.27
2018-06-08T15:56:43.369Z,14.27
2018-06-08T15:59:50.353Z,14.67
2018-06-08T16:02:53.771Z,15.10
2018-06-08T16:05:58.384Z,13.47
2018-06-08T16:09:01.870Z,15.37
2018-06-08T16:12:05.728Z,16.27
2018-06-08T16:15:09.209Z,15.40
2018-06-08T16:18:12.792Z,14.97
2018-06-08T16:21:16.517Z,14.93
2018-06-08T16:24:20.267Z,15.00
2018-06-08T16:27:23.383Z,14.83
2018-06-08T16:30:27.089Z,16.83
2018-06-08T16:33:30.592Z,16.57
2018-06-08T16:36:33.637Z,18.23
2018-06-08T16:39:37.410Z,15.13
2018-06-08T16:42:40.409Z,14.87
2018-06-08T16:45:43.987Z,21.10
2018-06-08T16:48:47.023Z,39.63
2018-06-08T16:51:50.590Z,19.77
2018-06-08T16:54:54.140Z,10.53
2018-06-08T16:57:57.730Z,17.20
2018-06-08T17:01:01.730Z,9.63
2018-06-08T17:04:05.261Z,10.50
2018-06-08T17:07:12.593Z,10.60
2018-06-08T17:10:17.084Z,11.47
2018-06-08T17:13:20.708Z,10.73
2018-06-08T17:16:24.274Z,11.97
2018-06-08T17:19:27.918Z,9.73
2018-06-08T17:22:30.955Z,9.67
2018-06-08T17:25:34.480Z,11.70
2018-06-08T17:28:37.856Z,11.47
2018-06-08T17:31:41.588Z,10.70
2018-06-08T17:34:45.301Z,21.60
2018-06-08T17:37:49.301Z,10.90
2018-06-08T17:40:53.115Z,10.27
2018-06-08T17:43:56.822Z,12.13
2018-06-08T17:51:07.232Z,13.87
2018-06-08T17:54:10.969Z,10.67
2018-06-08T17:57:14.622Z,9.50
2018-06-08T18:00:18.047Z,11.77
2018-06-08T18:03:21.981Z,9.07
2018-06-08T18:06:25.456Z,8.00
2018-06-08T18:09:29.023Z,7.27
2018-06-08T18:12:32.483Z,16.40
2018-06-08T18:15:35.930Z,11.90
2018-06-08T18:18:43.263Z,7.90
2018-06-08T18:21:46.506Z,9.43
2018-06-08T18:24:50.116Z,7.17
2018-06-08T18:27:53.166Z,6.33
2018-06-08T18:30:56.752Z,9.03
2018-06-08T18:34:00.229Z,7.47
2018-06-08T18:37:03.994Z,7.57
2018-06-08T18:40:07.670Z,6.57
2018-06-08T18:43:12.357Z,7.33
2018-06-08T18:46:15.881Z,7.13
2018-06-08T18:49:19.340Z,7.90
2018-06-08T18:52:24.615Z,7.97
2018-06-08T18:55:28.217Z,7.23
2018-06-08T18:58:31.848Z,7.87
2018-06-08T19:01:35.696Z,7.43
2018-06-08T19:04:39.415Z,8.80
2018-06-08T19:07:42.893Z,7.87
2018-06-08T19:10:46.492Z,7.73
2018-06-08T19:13:51.098Z,13.53
2018-06-08T19:16:54.592Z,8.67
2018-06-08T19:19:58.384Z,12.13
2018-06-08T19:23:02.122Z,8.10
2018-06-08T19:26:05.543Z,7.60
2018-06-08T19:29:09.915Z,7.70
2018-06-08T19:32:13.451Z,7.47
2018-06-08T19:35:17.187Z,7.77
2018-06-08T19:38:20.490Z,9.47
2018-06-08T19:41:23.776Z,7.10
2018-06-08T19:44:28.896Z,9.40
2018-06-08T19:47:32.674Z,8.27
2018-06-08T19:50:37.047Z,8.03
2018-06-08T19:53:40.431Z,8.93
2018-06-08T19:56:44.182Z,8.10
2018-06-08T19:59:49.230Z,7.70
2018-06-08T20:02:52.716Z,12.23
2018-06-08T20:05:56.181Z,11.13
2018-06-08T20:08:59.919Z,8.03
2018-06-08T20:12:03.544Z,8.37
2018-06-08T20:15:07.989Z,8.23
2018-06-08T20:18:11.318Z,11.47
2018-06-08T20:21:14.853Z,10.80
2018-06-08T20:24:18.313Z,8.60
2018-06-08T20:27:21.887Z,7.90
2018-06-08T20:30:25.488Z,9.43
2018-06-08T20:33:29.055Z,11.53
2018-06-08T20:36:32.553Z,8.07
2018-06-08T20:39:36.216Z,9.50
2018-06-08T20:42:39.600Z,9.37
2018-06-08T20:45:43.358Z,11.73
2018-06-08T20:48:46.904Z,9.97
2018-06-08T20:51:50.876Z,8.00
2018-06-08T20:54:54.950Z,8.00
2018-06-08T20:58:00.530Z,9.27
2018-06-08T21:01:04.115Z,11.03
2018-06-08T21:04:07.716Z,11.13
2018-06-08T21:07:11.444Z,9.10
2018-06-08T21:10:15.165Z,10.90
2018-06-08T21:13:19.034Z,10.00
2018-06-08T21:16:22.633Z,9.43
2018-06-08T21:19:26.301Z,10.77
2018-06-08T21:22:29.742Z,10.83
2018-06-08T21:25:33.395Z,11.90
2018-06-08T21:28:37.016Z,10.77
2018-06-08T21:31:40.686Z,9.80
2018-06-08T21:34:44.303Z,9.90
2018-06-08T21:37:47.666Z,9.37
2018-06-08T21:40:51.184Z,10.17
2018-06-08T21:43:54.791Z,10.97
2018-06-08T21:46:58.627Z,9.87
2018-06-08T21:50:02.059Z,9.50
2018-06-08T21:53:05.573Z,9.40
2018-06-08T21:56:09.341Z,9.23
2018-06-08T21:59:12.771Z,10.40
2018-06-08T22:02:16.334Z,9.47
2018-06-08T22:05:19.668Z,13.90
2018-06-08T22:08:23.162Z,11.77
2018-06-08T22:11:26.720Z,11.27
2018-06-08T22:14:30.195Z,11.37
2018-06-08T22:17:33.592Z,10.70
2018-06-08T22:20:37.091Z,11.33
2018-06-08T22:23:41.364Z,11.47
2018-06-08T22:26:44.927Z,13.73
2018-06-08T22:29:48.383Z,14.47
2018-06-08T22:32:52.564Z,13.13
2018-06-08T22:35:56.169Z,14.80
2018-06-08T22:39:02.053Z,15.90
2018-06-08T22:42:05.657Z,15.53
2018-06-08T22:45:09.070Z,15.27
2018-06-08T22:48:12.626Z,15.10
2018-06-08T22:51:16.244Z,14.60
2018-06-08T22:54:19.584Z,23.93
2018-06-08T22:57:22.966Z,21.47
2018-06-08T23:00:26.515Z,19.13
2018-06-08T23:03:30.063Z,20.57
2018-06-08T23:06:33.492Z,17.97
2018-06-08T23:09:37.056Z,18.87
2018-06-08T23:12:40.428Z,14.20
2018-06-08T23:15:43.818Z,16.57
2018-06-08T23:18:47.675Z,17.30
2018-06-08T23:21:51.650Z,18.77
2018-06-08T23:24:55.134Z,15.97
2018-06-08T23:27:58.488Z,17.57
2018-06-08T23:31:02.239Z,21.93
2018-06-08T23:34:05.812Z,19.90
2018-06-08T23:37:09.429Z,20.07
2018-06-08T23:40:12.749Z,16.40
2018-06-08T23:43:16.128Z,17.60
2018-06-08T23:46:19.709Z,23.17
2018-06-08T23:49:23.193Z,18.60
2018-06-08T23:52:26.830Z,19.07
2018-06-08T23:55:30.211Z,21.57
2018-06-08T23:58:33.677Z,19.80
